sensor_id;sensor_type;location;lat;lon;timestamp;pressure;altitude;pressure_sealevel;temperature;humidity
2563;BME280;1291;51.420;6.970;2022-12-07T00:01:24;100051.25;;;22.05;25.95
2563;BME280;1291;51.420;6.970;2022-12-07T00:03:52;100047.50;;;22.14;25.80
2563;BME280;1291;51.420;6.970;2022-12-07T00:06:18;100056.47;;;22.07;26.02
2563;BME280;1291;51.420;6.970;2022-12-07T00:08:45;100053.69;;;21.69;26.39
2563;BME280;1291;51.420;6.970;2022-12-07T00:11:19;100058.25;;;22.06;26.26
2563;BME280;1291;51.420;6.970;2022-12-07T00:13:45;100054.53;;;21.71;26.64
2563;BME280;1291;51.420;6.970;2022-12-07T00:16:15;100054.44;;;22.20;25.83
2563;BME280;1291;51.420;6.970;2022-12-07T00:18:41;100059.81;;;21.19;27.71
2563;BME280;1291;51.420;6.970;2022-12-07T00:21:10;100063.94;;;21.86;26.24
2563;BME280;1291;51.420;6.970;2022-12-07T00:23:37;100055.44;;;22.16;25.96
2563;BME280;1291;51.420;6.970;2022-12-07T00:28:41;100046.78;;;21.62;27.21
2563;BME280;1291;51.420;6.970;2022-12-07T00:31:14;100054.41;;;21.78;26.60
2563;BME280;1291;51.420;6.970;2022-12-07T00:33:39;100049.91;;;22.28;25.89
2563;BME280;1291;51.420;6.970;2022-12-07T00:36:08;100042.53;;;21.52;27.04
2563;BME280;1291;51.420;6.970;2022-12-07T00:38:35;100041.69;;;21.51;27.15
2563;BME280;1291;51.420;6.970;2022-12-07T00:41:06;100037.97;;;22.07;26.42
2563;BME280;1291;51.420;6.970;2022-12-07T00:43:32;100032.31;;;20.79;28.50
2563;BME280;1291;51.420;6.970;2022-12-07T00:46:00;100027.59;;;21.00;28.06
2563;BME280;1291;51.420;6.970;2022-12-07T00:48:25;100026.19;;;21.30;27.33
2563;BME280;1291;51.420;6.970;2022-12-07T00:50:51;100033.97;;;21.38;26.97
2563;BME280;1291;51.420;6.970;2022-12-07T00:53:17;100031.41;;;21.35;27.33
2563;BME280;1291;51.420;6.970;2022-12-07T00:55:43;100027.75;;;21.42;27.01
2563;BME280;1291;51.420;6.970;2022-12-07T00:58:09;100028.22;;;21.14;27.68
2563;BME280;1291;51.420;6.970;2022-12-07T01:00:39;100033.38;;;21.71;26.73
2563;BME280;1291;51.420;6.970;2022-12-07T01:03:05;100029.19;;;21.61;27.06
2563;BME280;1291;51.420;6.970;2022-12-07T01:05:31;100033.91;;;21.90;26.74
2563;BME280;1291;51.420;6.970;2022-12-07T01:07:56;100030.81;;;21.17;27.30
2563;BME280;1291;51.420;6.970;2022-12-07T01:10:22;100027.28;;;22.13;26.07
2563;BME280;1291;51.420;6.970;2022-12-07T01:12:47;100024.97;;;21.96;26.71
2563;BME280;1291;51.420;6.970;2022-12-07T01:15:12;100028.34;;;21.59;27.08
2563;BME280;1291;51.420;6.970;2022-12-07T01:17:38;100025.00;;;21.95;26.54
2563;BME280;1291;51.420;6.970;2022-12-07T01:20:04;100022.19;;;22.04;26.52
2563;BME280;1291;51.420;6.970;2022-12-07T01:22:29;100025.81;;;21.53;27.17
2563;BME280;1291;51.420;6.970;2022-12-07T01:24:55;100019.88;;;21.87;26.81
2563;BME280;1291;51.420;6.970;2022-12-07T01:27:20;100021.94;;;21.21;27.58
2563;BME280;1291;51.420;6.970;2022-12-07T01:29:46;100025.22;;;21.36;27.29
2563;BME280;1291;51.420;6.970;2022-12-07T01:32:12;100030.94;;;22.06;26.50
2563;BME280;1291;51.420;6.970;2022-12-07T01:34:43;100020.44;;;22.45;25.74
2563;BME280;1291;51.420;6.970;2022-12-07T01:37:08;100032.94;;;21.48;26.87
2563;BME280;1291;51.420;6.970;2022-12-07T01:39:34;100029.72;;;22.22;25.92
2563;BME280;1291;51.420;6.970;2022-12-07T01:41:59;100030.81;;;21.68;26.94
2563;BME280;1291;51.420;6.970;2022-12-07T01:44:29;100028.59;;;21.92;26.40
2563;BME280;1291;51.420;6.970;2022-12-07T01:47:02;100034.91;;;21.83;26.62
2563;BME280;1291;51.420;6.970;2022-12-07T01:49:46;100027.59;;;21.98;26.11
2563;BME280;1291;51.420;6.970;2022-12-07T01:52:24;100033.41;;;22.15;25.91
2563;BME280;1291;51.420;6.970;2022-12-07T01:54:53;100028.63;;;22.71;25.47
2563;BME280;1291;51.420;6.970;2022-12-07T01:57:20;100028.16;;;22.14;25.94
2563;BME280;1291;51.420;6.970;2022-12-07T01:59:48;100027.03;;;22.27;26.00
2563;BME280;1291;51.420;6.970;2022-12-07T02:02:22;100023.00;;;22.06;26.14
2563;BME280;1291;51.420;6.970;2022-12-07T02:04:52;100018.34;;;21.73;26.67
2563;BME280;1291;51.420;6.970;2022-12-07T02:07:19;100020.41;;;21.59;27.00
2563;BME280;1291;51.420;6.970;2022-12-07T02:09:48;100011.06;;;21.88;26.29
2563;BME280;1291;51.420;6.970;2022-12-07T02:12:13;100016.31;;;21.89;26.47
2563;BME280;1291;51.420;6.970;2022-12-07T02:14:39;100005.22;;;21.70;26.72
2563;BME280;1291;51.420;6.970;2022-12-07T02:23:00;100014.84;;;22.17;25.78
2563;BME280;1291;51.420;6.970;2022-12-07T02:25:42;100012.44;;;21.62;26.87
2563;BME280;1291;51.420;6.970;2022-12-07T02:31:15;100008.31;;;21.47;27.04
2563;BME280;1291;51.420;6.970;2022-12-07T02:33:47;100009.28;;;22.30;25.81
2563;BME280;1291;51.420;6.970;2022-12-07T02:36:29;100019.94;;;21.84;26.38
2563;BME280;1291;51.420;6.970;2022-12-07T02:39:13;100023.44;;;21.84;26.41
2563;BME280;1291;51.420;6.970;2022-12-07T02:41:44;100014.31;;;21.99;26.45
2563;BME280;1291;51.420;6.970;2022-12-07T02:44:14;100020.94;;;21.78;26.60
2563;BME280;1291;51.420;6.970;2022-12-07T02:46:50;100025.47;;;20.66;28.11
2563;BME280;1291;51.420;6.970;2022-12-07T02:49:18;100018.22;;;21.33;27.04
2563;BME280;1291;51.420;6.970;2022-12-07T02:51:46;100012.56;;;21.56;26.80
2563;BME280;1291;51.420;6.970;2022-12-07T02:54:13;100012.00;;;21.84;26.45
2563;BME280;1291;51.420;6.970;2022-12-07T03:08:15;100017.03;;;21.96;25.91
2563;BME280;1291;51.420;6.970;2022-12-07T03:13:25;100014.31;;;21.54;26.51
2563;BME280;1291;51.420;6.970;2022-12-07T03:16:08;100015.56;;;21.35;26.73
2563;BME280;1291;51.420;6.970;2022-12-07T03:18:51;100023.91;;;20.49;27.74
2563;BME280;1291;51.420;6.970;2022-12-07T03:21:21;100016.06;;;21.05;26.65
2563;BME280;1291;51.420;6.970;2022-12-07T03:23:53;100011.53;;;21.12;26.75
2563;BME280;1291;51.420;6.970;2022-12-07T03:26:24;100017.34;;;21.32;26.39
2563;BME280;1291;51.420;6.970;2022-12-07T03:28:55;100008.63;;;21.76;25.92
2563;BME280;1291;51.420;6.970;2022-12-07T03:31:38;100005.97;;;21.29;26.63
2563;BME280;1291;51.420;6.970;2022-12-07T03:34:29;100013.34;;;21.60;26.33
2563;BME280;1291;51.420;6.970;2022-12-07T03:37:02;100013.59;;;21.47;26.46
2563;BME280;1291;51.420;6.970;2022-12-07T03:39:43;100005.75;;;21.41;26.23
2563;BME280;1291;51.420;6.970;2022-12-07T03:42:10;100009.41;;;21.32;26.76
2563;BME280;1291;51.420;6.970;2022-12-07T03:44:36;100007.59;;;20.83;26.94
2563;BME280;1291;51.420;6.970;2022-12-07T03:52:45;100005.19;;;21.72;26.04
2563;BME280;1291;51.420;6.970;2022-12-07T03:55:17;100005.69;;;21.46;26.28
2563;BME280;1291;51.420;6.970;2022-12-07T03:57:47;100005.22;;;22.12;25.21
2563;BME280;1291;51.420;6.970;2022-12-07T04:00:15;100009.78;;;22.06;25.51
2563;BME280;1291;51.420;6.970;2022-12-07T04:02:41;100004.94;;;21.84;25.57
2563;BME280;1291;51.420;6.970;2022-12-07T04:05:08;100009.25;;;21.42;26.46
2563;BME280;1291;51.420;6.970;2022-12-07T04:07:33;100009.16;;;20.97;27.18
2563;BME280;1291;51.420;6.970;2022-12-07T04:09:59;100010.19;;;21.39;26.30
2563;BME280;1291;51.420;6.970;2022-12-07T04:12:24;100011.25;;;21.29;26.37
2563;BME280;1291;51.420;6.970;2022-12-07T04:14:50;100005.41;;;21.61;25.76
2563;BME280;1291;51.420;6.970;2022-12-07T04:17:15;99999.94;;;21.70;25.67
2563;BME280;1291;51.420;6.970;2022-12-07T04:19:41;99996.31;;;21.76;25.59
2563;BME280;1291;51.420;6.970;2022-12-07T04:22:06;99999.03;;;21.71;25.56
2563;BME280;1291;51.420;6.970;2022-12-07T04:24:32;100003.34;;;21.29;25.69
2563;BME280;1291;51.420;6.970;2022-12-07T04:26:58;100005.69;;;21.44;26.33
2563;BME280;1291;51.420;6.970;2022-12-07T04:29:23;100002.50;;;21.73;25.48
2563;BME280;1291;51.420;6.970;2022-12-07T04:31:49;100006.84;;;20.75;27.09
2563;BME280;1291;51.420;6.970;2022-12-07T04:34:15;99989.53;;;20.57;26.99
2563;BME280;1291;51.420;6.970;2022-12-07T04:36:41;100001.94;;;21.08;26.15
2563;BME280;1291;51.420;6.970;2022-12-07T04:39:09;100000.34;;;21.49;25.86
2563;BME280;1291;51.420;6.970;2022-12-07T04:41:41;99991.16;;;21.20;26.25
2563;BME280;1291;51.420;6.970;2022-12-07T04:44:07;99996.56;;;20.58;27.10
2563;BME280;1291;51.420;6.970;2022-12-07T04:46:32;99994.66;;;20.68;26.90
2563;BME280;1291;51.420;6.970;2022-12-07T04:48:59;99995.72;;;20.54;26.79
2563;BME280;1291;51.420;6.970;2022-12-07T04:51:28;99997.41;;;20.59;27.07
2563;BME280;1291;51.420;6.970;2022-12-07T04:53:55;100000.94;;;20.56;27.44
2563;BME280;1291;51.420;6.970;2022-12-07T04:56:21;100006.75;;;20.81;26.80
2563;BME280;1291;51.420;6.970;2022-12-07T04:58:47;100002.75;;;21.11;26.16
2563;BME280;1291;51.420;6.970;2022-12-07T05:01:14;100003.88;;;20.97;26.08
2563;BME280;1291;51.420;6.970;2022-12-07T05:03:39;100003.59;;;21.15;25.84
2563;BME280;1291;51.420;6.970;2022-12-07T05:06:06;100006.72;;;20.86;26.57
2563;BME280;1291;51.420;6.970;2022-12-07T05:08:33;100001.47;;;21.32;25.80
2563;BME280;1291;51.420;6.970;2022-12-07T05:10:59;100002.81;;;20.49;26.54
2563;BME280;1291;51.420;6.970;2022-12-07T05:13:24;99994.06;;;21.05;25.96
2563;BME280;1291;51.420;6.970;2022-12-07T05:15:49;99997.47;;;21.13;26.26
2563;BME280;1291;51.420;6.970;2022-12-07T05:18:15;99997.38;;;21.18;25.82
2563;BME280;1291;51.420;6.970;2022-12-07T05:20:41;100001.22;;;20.98;25.91
2563;BME280;1291;51.420;6.970;2022-12-07T05:23:06;100004.13;;;20.81;26.10
2563;BME280;1291;51.420;6.970;2022-12-07T05:25:34;100003.44;;;20.70;26.30
2563;BME280;1291;51.420;6.970;2022-12-07T05:28:00;100000.69;;;21.29;25.77
2563;BME280;1291;51.420;6.970;2022-12-07T05:30:28;99998.44;;;21.07;25.93
2563;BME280;1291;51.420;6.970;2022-12-07T05:32:54;100002.75;;;21.13;25.99
2563;BME280;1291;51.420;6.970;2022-12-07T05:35:25;100002.56;;;20.68;26.49
2563;BME280;1291;51.420;6.970;2022-12-07T05:37:51;99998.81;;;20.83;26.44
2563;BME280;1291;51.420;6.970;2022-12-07T05:40:22;99994.91;;;21.07;26.04
2563;BME280;1291;51.420;6.970;2022-12-07T05:42:47;99993.03;;;21.15;25.92
2563;BME280;1291;51.420;6.970;2022-12-07T05:45:13;99994.69;;;20.66;26.15
2563;BME280;1291;51.420;6.970;2022-12-07T05:47:38;99992.25;;;21.08;25.79
2563;BME280;1291;51.420;6.970;2022-12-07T05:50:05;99983.22;;;21.20;25.75
2563;BME280;1291;51.420;6.970;2022-12-07T05:52:30;99993.72;;;21.25;25.36
2563;BME280;1291;51.420;6.970;2022-12-07T05:54:56;99993.94;;;20.55;26.48
2563;BME280;1291;51.420;6.970;2022-12-07T05:57:21;99988.34;;;20.78;26.31
2563;BME280;1291;51.420;6.970;2022-12-07T05:59:47;99984.44;;;21.02;26.01
2563;BME280;1291;51.420;6.970;2022-12-07T06:02:14;99983.06;;;20.78;26.17
2563;BME280;1291;51.420;6.970;2022-12-07T06:04:42;99979.63;;;20.73;26.31
2563;BME280;1291;51.420;6.970;2022-12-07T06:07:08;99981.03;;;20.96;25.98
2563;BME280;1291;51.420;6.970;2022-12-07T06:09:34;99980.25;;;20.89;26.17
2563;BME280;1291;51.420;6.970;2022-12-07T06:12:00;99981.69;;;21.07;25.63
2563;BME280;1291;51.420;6.970;2022-12-07T06:14:44;99985.59;;;20.86;26.18
2563;BME280;1291;51.420;6.970;2022-12-07T06:17:10;99985.03;;;20.64;26.56
2563;BME280;1291;51.420;6.970;2022-12-07T06:19:39;99981.09;;;20.89;25.69
2563;BME280;1291;51.420;6.970;2022-12-07T06:22:04;99996.06;;;20.30;26.73
2563;BME280;1291;51.420;6.970;2022-12-07T06:24:31;99990.88;;;21.36;25.14
2563;BME280;1291;51.420;6.970;2022-12-07T06:26:57;99993.88;;;20.63;26.30
2563;BME280;1291;51.420;6.970;2022-12-07T06:29:22;100004.38;;;21.19;25.30
2563;BME280;1291;51.420;6.970;2022-12-07T06:31:48;100006.31;;;20.50;26.55
2563;BME280;1291;51.420;6.970;2022-12-07T06:34:16;99996.31;;;20.75;25.99
2563;BME280;1291;51.420;6.970;2022-12-07T06:36:46;100004.59;;;19.84;27.12
2563;BME280;1291;51.420;6.970;2022-12-07T06:39:16;99994.38;;;20.86;25.86
2563;BME280;1291;51.420;6.970;2022-12-07T06:41:41;100000.38;;;20.94;25.87
2563;BME280;1291;51.420;6.970;2022-12-07T06:44:07;99999.00;;;21.25;25.34
2563;BME280;1291;51.420;6.970;2022-12-07T06:46:32;100006.09;;;20.70;25.81
2563;BME280;1291;51.420;6.970;2022-12-07T06:48:58;100009.09;;;21.52;24.78
2563;BME280;1291;51.420;6.970;2022-12-07T06:51:23;100004.09;;;20.21;26.63
2563;BME280;1291;51.420;6.970;2022-12-07T06:53:49;100012.69;;;20.37;26.72
2563;BME280;1291;51.420;6.970;2022-12-07T06:56:14;100016.25;;;21.46;25.04
2563;BME280;1291;51.420;6.970;2022-12-07T06:58:40;100008.31;;;20.94;25.67
2563;BME280;1291;51.420;6.970;2022-12-07T07:01:11;100007.34;;;20.41;26.49
2563;BME280;1291;51.420;6.970;2022-12-07T07:03:36;100005.38;;;21.13;25.35
2563;BME280;1291;51.420;6.970;2022-12-07T07:06:02;100013.69;;;20.88;25.52
2563;BME280;1291;51.420;6.970;2022-12-07T07:08:27;100011.56;;;21.10;25.63
2563;BME280;1291;51.420;6.970;2022-12-07T07:10:52;100006.13;;;20.65;26.14
2563;BME280;1291;51.420;6.970;2022-12-07T07:13:18;100005.63;;;20.39;26.46
2563;BME280;1291;51.420;6.970;2022-12-07T07:15:43;100000.47;;;20.91;26.02
2563;BME280;1291;51.420;6.970;2022-12-07T07:18:09;100006.13;;;20.65;26.16
2563;BME280;1291;51.420;6.970;2022-12-07T07:20:34;100003.13;;;20.88;25.94
2563;BME280;1291;51.420;6.970;2022-12-07T07:22:59;100001.34;;;20.89;25.85
2563;BME280;1291;51.420;6.970;2022-12-07T07:25:25;100009.16;;;20.38;26.45
2563;BME280;1291;51.420;6.970;2022-12-07T07:27:50;100015.97;;;20.52;26.38
2563;BME280;1291;51.420;6.970;2022-12-07T07:30:16;100008.19;;;21.01;25.62
2563;BME280;1291;51.420;6.970;2022-12-07T07:32:41;100015.88;;;21.16;25.37
2563;BME280;1291;51.420;6.970;2022-12-07T07:35:06;100015.59;;;20.79;25.73
2563;BME280;1291;51.420;6.970;2022-12-07T07:37:32;100011.03;;;20.91;25.85
2563;BME280;1291;51.420;6.970;2022-12-07T07:40:00;100007.22;;;20.50;26.00
2563;BME280;1291;51.420;6.970;2022-12-07T07:42:25;100012.75;;;20.30;26.67
2563;BME280;1291;51.420;6.970;2022-12-07T07:44:50;100015.25;;;20.43;26.22
2563;BME280;1291;51.420;6.970;2022-12-07T07:47:16;100015.63;;;20.77;25.97
2563;BME280;1291;51.420;6.970;2022-12-07T07:49:41;100016.66;;;20.67;26.19
2563;BME280;1291;51.420;6.970;2022-12-07T07:52:07;100011.78;;;20.98;25.80
2563;BME280;1291;51.420;6.970;2022-12-07T07:54:32;100016.28;;;20.91;25.78
2563;BME280;1291;51.420;6.970;2022-12-07T07:56:57;100012.16;;;21.26;25.37
2563;BME280;1291;51.420;6.970;2022-12-07T07:59:23;100017.19;;;21.42;25.17
2563;BME280;1291;51.420;6.970;2022-12-07T08:01:48;100016.63;;;21.23;25.34
2563;BME280;1291;51.420;6.970;2022-12-07T08:04:13;100020.78;;;20.85;26.03
2563;BME280;1291;51.420;6.970;2022-12-07T08:06:39;100019.91;;;20.86;25.71
2563;BME280;1291;51.420;6.970;2022-12-07T08:09:04;100023.81;;;20.55;26.68
2563;BME280;1291;51.420;6.970;2022-12-07T08:11:31;100018.97;;;20.88;25.80
2563;BME280;1291;51.420;6.970;2022-12-07T08:13:57;100019.94;;;20.81;25.65
2563;BME280;1291;51.420;6.970;2022-12-07T08:16:22;100020.13;;;20.70;26.20
2563;BME280;1291;51.420;6.970;2022-12-07T08:18:47;100020.25;;;21.17;25.70
2563;BME280;1291;51.420;6.970;2022-12-07T08:21:14;100024.94;;;21.01;25.77
2563;BME280;1291;51.420;6.970;2022-12-07T08:23:40;100027.34;;;21.15;25.53
2563;BME280;1291;51.420;6.970;2022-12-07T08:26:09;100025.59;;;21.14;25.55
2563;BME280;1291;51.420;6.970;2022-12-07T08:28:35;100031.81;;;20.52;26.65
2563;BME280;1291;51.420;6.970;2022-12-07T08:31:18;100026.91;;;21.38;25.31
2563;BME280;1291;51.420;6.970;2022-12-07T08:33:46;100027.66;;;21.48;25.08
2563;BME280;1291;51.420;6.970;2022-12-07T08:36:12;100027.66;;;20.95;25.80
2563;BME280;1291;51.420;6.970;2022-12-07T08:38:39;100022.91;;;21.17;25.12
2563;BME280;1291;51.420;6.970;2022-12-07T08:41:05;100026.78;;;20.94;26.12
2563;BME280;1291;51.420;6.970;2022-12-07T08:43:31;100030.84;;;21.16;25.60
2563;BME280;1291;51.420;6.970;2022-12-07T08:46:16;100029.19;;;21.08;25.82
2563;BME280;1291;51.420;6.970;2022-12-07T08:48:49;100028.81;;;20.77;25.85
2563;BME280;1291;51.420;6.970;2022-12-07T08:51:15;100028.88;;;20.07;26.95
2563;BME280;1291;51.420;6.970;2022-12-07T08:53:41;100024.00;;;20.45;26.41
2563;BME280;1291;51.420;6.970;2022-12-07T08:56:08;100026.28;;;20.69;26.03
2563;BME280;1291;51.420;6.970;2022-12-07T08:58:35;100023.81;;;21.14;25.44
2563;BME280;1291;51.420;6.970;2022-12-07T09:01:01;100030.91;;;21.11;25.93
2563;BME280;1291;51.420;6.970;2022-12-07T09:03:26;100029.63;;;21.35;25.17
2563;BME280;1291;51.420;6.970;2022-12-07T09:05:53;100026.81;;;21.92;24.66
2563;BME280;1291;51.420;6.970;2022-12-07T09:08:19;100031.66;;;21.19;25.66
2563;BME280;1291;51.420;6.970;2022-12-07T09:10:45;100028.94;;;21.73;24.61
2563;BME280;1291;51.420;6.970;2022-12-07T09:13:11;100033.75;;;20.99;25.98
2563;BME280;1291;51.420;6.970;2022-12-07T09:15:36;100030.28;;;20.97;25.80
2563;BME280;1291;51.420;6.970;2022-12-07T09:18:02;100036.38;;;20.40;26.63
2563;BME280;1291;51.420;6.970;2022-12-07T09:20:27;100036.50;;;20.92;26.06
2563;BME280;1291;51.420;6.970;2022-12-07T09:22:52;100037.69;;;20.73;26.26
2563;BME280;1291;51.420;6.970;2022-12-07T09:25:18;100041.47;;;20.52;26.42
2563;BME280;1291;51.420;6.970;2022-12-07T09:27:43;100040.22;;;20.79;25.85
2563;BME280;1291;51.420;6.970;2022-12-07T09:30:08;100047.53;;;20.59;26.56
2563;BME280;1291;51.420;6.970;2022-12-07T09:32:34;100044.50;;;20.86;26.03
2563;BME280;1291;51.420;6.970;2022-12-07T09:34:59;100038.06;;;21.06;25.51
2563;BME280;1291;51.420;6.970;2022-12-07T09:37:25;100042.28;;;20.60;26.64
2563;BME280;1291;51.420;6.970;2022-12-07T09:39:50;100042.47;;;21.04;25.50
2563;BME280;1291;51.420;6.970;2022-12-07T09:42:38;100032.25;;;21.85;24.92
2563;BME280;1291;51.420;6.970;2022-12-07T09:45:19;100034.16;;;21.77;25.19
2563;BME280;1291;51.420;6.970;2022-12-07T09:47:46;100034.47;;;21.61;25.24
2563;BME280;1291;51.420;6.970;2022-12-07T09:50:15;100035.25;;;21.66;25.18
2563;BME280;1291;51.420;6.970;2022-12-07T09:52:43;100032.28;;;21.33;25.67
2563;BME280;1291;51.420;6.970;2022-12-07T09:55:16;100029.34;;;21.52;25.22
2563;BME280;1291;51.420;6.970;2022-12-07T09:57:45;100032.78;;;20.45;26.71
2563;BME280;1291;51.420;6.970;2022-12-07T10:00:14;100024.38;;;21.32;25.32
2563;BME280;1291;51.420;6.970;2022-12-07T10:02:49;100030.88;;;21.64;25.09
2563;BME280;1291;51.420;6.970;2022-12-07T10:05:22;100025.31;;;21.78;25.12
2563;BME280;1291;51.420;6.970;2022-12-07T10:07:49;100023.06;;;21.08;25.93
2563;BME280;1291;51.420;6.970;2022-12-07T10:10:18;100021.84;;;21.76;25.15
2563;BME280;1291;51.420;6.970;2022-12-07T10:13:00;100021.09;;;21.69;25.03
2563;BME280;1291;51.420;6.970;2022-12-07T10:20:47;100017.41;;;21.29;25.74
2563;BME280;1291;51.420;6.970;2022-12-07T10:23:17;100010.56;;;22.11;24.73
2563;BME280;1291;51.420;6.970;2022-12-07T10:25:44;100004.31;;;22.56;24.18
2563;BME280;1291;51.420;6.970;2022-12-07T10:28:16;100004.19;;;21.78;25.50
2563;BME280;1291;51.420;6.970;2022-12-07T10:31:03;99999.91;;;22.56;24.38
2563;BME280;1291;51.420;6.970;2022-12-07T10:33:57;99994.34;;;22.28;24.73
2563;BME280;1291;51.420;6.970;2022-12-07T10:39:16;99988.59;;;21.64;25.19
2563;BME280;1291;51.420;6.970;2022-12-07T10:41:57;99981.56;;;22.06;24.81
2563;BME280;1291;51.420;6.970;2022-12-07T10:44:25;99983.88;;;22.62;24.40
2563;BME280;1291;51.420;6.970;2022-12-07T10:52:23;99976.13;;;22.55;24.61
2563;BME280;1291;51.420;6.970;2022-12-07T10:55:03;99969.50;;;21.51;25.74
2563;BME280;1291;51.420;6.970;2022-12-07T10:58:15;99968.06;;;21.80;25.34
2563;BME280;1291;51.420;6.970;2022-12-07T11:00:50;99972.72;;;21.65;25.47
2563;BME280;1291;51.420;6.970;2022-12-07T11:06:14;99972.28;;;21.87;25.10
2563;BME280;1291;51.420;6.970;2022-12-07T11:09:04;99967.09;;;22.24;24.98
2563;BME280;1291;51.420;6.970;2022-12-07T11:11:39;99964.66;;;21.71;25.29
2563;BME280;1291;51.420;6.970;2022-12-07T11:14:37;99966.00;;;21.50;25.85
2563;BME280;1291;51.420;6.970;2022-12-07T11:17:12;99964.44;;;21.39;26.03
2563;BME280;1291;51.420;6.970;2022-12-07T11:27:43;99955.63;;;22.24;24.39
2563;BME280;1291;51.420;6.970;2022-12-07T11:30:18;99950.16;;;22.33;24.62
2563;BME280;1291;51.420;6.970;2022-12-07T11:33:04;99945.88;;;22.65;24.05
2563;BME280;1291;51.420;6.970;2022-12-07T11:35:43;99936.16;;;21.87;25.18
2563;BME280;1291;51.420;6.970;2022-12-07T11:38:17;99939.72;;;22.64;24.24
2563;BME280;1291;51.420;6.970;2022-12-07T11:40:54;99930.00;;;22.65;24.27
2563;BME280;1291;51.420;6.970;2022-12-07T11:43:27;99934.91;;;22.05;25.08
2563;BME280;1291;51.420;6.970;2022-12-07T11:46:00;99930.81;;;21.90;25.15
2563;BME280;1291;51.420;6.970;2022-12-07T11:48:33;99932.50;;;22.35;24.84
2563;BME280;1291;51.420;6.970;2022-12-07T11:51:01;99929.28;;;21.33;25.41
2563;BME280;1291;51.420;6.970;2022-12-07T11:56:20;99931.03;;;22.19;24.55
2563;BME280;1291;51.420;6.970;2022-12-07T11:59:27;99928.72;;;21.64;24.91
2563;BME280;1291;51.420;6.970;2022-12-07T12:02:13;99922.13;;;22.24;24.37
2563;BME280;1291;51.420;6.970;2022-12-07T12:04:59;99929.31;;;21.77;24.62
2563;BME280;1291;51.420;6.970;2022-12-07T12:07:28;99927.09;;;21.57;24.99
2563;BME280;1291;51.420;6.970;2022-12-07T12:09:58;99919.91;;;22.06;24.56
2563;BME280;1291;51.420;6.970;2022-12-07T12:12:48;99925.22;;;22.43;24.19
2563;BME280;1291;51.420;6.970;2022-12-07T12:15:35;99915.81;;;21.50;25.46
2563;BME280;1291;51.420;6.970;2022-12-07T12:18:09;99918.56;;;21.43;25.12
2563;BME280;1291;51.420;6.970;2022-12-07T12:20:44;99913.28;;;22.27;23.96
2563;BME280;1291;51.420;6.970;2022-12-07T12:23:16;99916.09;;;21.79;24.78
2563;BME280;1291;51.420;6.970;2022-12-07T12:26:02;99916.78;;;21.45;25.40
2563;BME280;1291;51.420;6.970;2022-12-07T12:29:05;99909.13;;;22.15;24.02
2563;BME280;1291;51.420;6.970;2022-12-07T12:31:34;99902.00;;;22.56;23.82
2563;BME280;1291;51.420;6.970;2022-12-07T12:34:04;99901.03;;;22.21;24.09
2563;BME280;1291;51.420;6.970;2022-12-07T12:51:48;99890.50;;;22.20;24.32
2563;BME280;1291;51.420;6.970;2022-12-07T12:56:57;99888.13;;;21.68;25.07
2563;BME280;1291;51.420;6.970;2022-12-07T12:59:30;99882.72;;;22.14;24.30
2563;BME280;1291;51.420;6.970;2022-12-07T13:02:10;99881.22;;;21.61;24.86
2563;BME280;1291;51.420;6.970;2022-12-07T13:18:39;99878.56;;;22.75;23.05
2563;BME280;1291;51.420;6.970;2022-12-07T13:28:46;99874.72;;;21.32;24.54
2563;BME280;1291;51.420;6.970;2022-12-07T13:31:45;99865.16;;;21.72;23.98
2563;BME280;1291;51.420;6.970;2022-12-07T13:34:32;99859.75;;;20.88;25.40
2563;BME280;1291;51.420;6.970;2022-12-07T13:37:12;99855.22;;;20.96;25.05
2563;BME280;1291;51.420;6.970;2022-12-07T13:39:47;99857.41;;;22.03;24.08
2563;BME280;1291;51.420;6.970;2022-12-07T13:42:34;99849.69;;;21.52;24.19
2563;BME280;1291;51.420;6.970;2022-12-07T13:45:20;99845.50;;;21.84;23.88
2563;BME280;1291;51.420;6.970;2022-12-07T13:47:53;99845.06;;;22.02;23.93
2563;BME280;1291;51.420;6.970;2022-12-07T13:50:31;99841.66;;;21.97;23.72
2563;BME280;1291;51.420;6.970;2022-12-07T13:52:58;99843.47;;;21.95;23.77
2563;BME280;1291;51.420;6.970;2022-12-07T13:55:24;99838.13;;;21.98;23.92
2563;BME280;1291;51.420;6.970;2022-12-07T13:57:52;99838.94;;;21.18;24.74
2563;BME280;1291;51.420;6.970;2022-12-07T14:03:04;99836.78;;;21.80;24.06
2563;BME280;1291;51.420;6.970;2022-12-07T14:06:10;99827.19;;;22.14;23.81
2563;BME280;1291;51.420;6.970;2022-12-07T14:08:38;99823.59;;;22.15;23.51
2563;BME280;1291;51.420;6.970;2022-12-07T14:11:04;99815.94;;;22.04;23.74
2563;BME280;1291;51.420;6.970;2022-12-07T14:13:38;99814.69;;;22.19;23.79
2563;BME280;1291;51.420;6.970;2022-12-07T14:16:28;99816.91;;;21.62;24.45
2563;BME280;1291;51.420;6.970;2022-12-07T14:18:59;99823.19;;;22.35;23.53
2563;BME280;1291;51.420;6.970;2022-12-07T14:21:27;99823.06;;;22.39;23.38
2563;BME280;1291;51.420;6.970;2022-12-07T14:24:16;99813.53;;;22.32;23.75
2563;BME280;1291;51.420;6.970;2022-12-07T14:26:49;99812.28;;;22.47;23.26
2563;BME280;1291;51.420;6.970;2022-12-07T14:29:20;99814.56;;;21.87;23.90
2563;BME280;1291;51.420;6.970;2022-12-07T14:31:45;99816.09;;;22.35;23.62
2563;BME280;1291;51.420;6.970;2022-12-07T14:34:14;99803.25;;;22.18;23.77
2563;BME280;1291;51.420;6.970;2022-12-07T14:36:39;99799.88;;;22.13;23.75
2563;BME280;1291;51.420;6.970;2022-12-07T14:39:07;99794.28;;;22.27;23.75
2563;BME280;1291;51.420;6.970;2022-12-07T14:41:33;99799.50;;;22.28;23.74
2563;BME280;1291;51.420;6.970;2022-12-07T14:44:18;99801.59;;;22.14;23.94
2563;BME280;1291;51.420;6.970;2022-12-07T14:46:43;99794.81;;;21.66;24.37
2563;BME280;1291;51.420;6.970;2022-12-07T14:49:10;99794.88;;;21.63;24.55
2563;BME280;1291;51.420;6.970;2022-12-07T14:51:37;99793.59;;;20.97;25.00
2563;BME280;1291;51.420;6.970;2022-12-07T14:54:14;99794.47;;;21.82;24.07
2563;BME280;1291;51.420;6.970;2022-12-07T14:56:40;99804.78;;;21.52;24.32
2563;BME280;1291;51.420;6.970;2022-12-07T14:59:07;99795.50;;;21.32;24.42
2563;BME280;1291;51.420;6.970;2022-12-07T15:01:32;99795.31;;;21.82;24.00
2563;BME280;1291;51.420;6.970;2022-12-07T15:03:57;99793.19;;;21.97;23.89
2563;BME280;1291;51.420;6.970;2022-12-07T15:06:23;99780.69;;;21.67;24.08
2563;BME280;1291;51.420;6.970;2022-12-07T15:08:48;99781.34;;;21.76;23.98
2563;BME280;1291;51.420;6.970;2022-12-07T15:11:15;99780.03;;;21.95;23.83